Time;durP1;ratioP1;P1;durP2;ratioP2;P2;SDS_P1;SDS_P2;PMS_P1;PMS_P2;Temp;Humidity;BMP_temperature;BMP_pressure;BME280_temperature;BME280_humidity;BME280_pressure;Samples;Min_cycle;Max_cycle;Signal;HPM_P1;HPM_P2
2022/11/11 00:01:01;;;;;;;10.70;1.08;;;;;;;13.97;100.00;99798.16;5106598;27;20047;-85
2022/11/11 00:03:53;;;;;;;7.47;1.10;;;;;;;13.97;100.00;99792.84;5121893;27;20038;-85
2022/11/11 00:06:40;;;;;;;6.05;1.60;;;;;;;13.92;100.00;99796.06;5113991;27;20110;-85
2022/11/11 00:09:28;;;;;;;7.45;1.25;;;;;;;13.93;100.00;99802.19;5111121;27;20031;-86
2022/11/11 00:12:14;;;;;;;8.38;1.65;;;;;;;13.91;100.00;99799.72;5103523;27;20042;-86
2022/11/11 00:15:02;;;;;;;10.63;1.50;;;;;;;13.89;100.00;99797.25;5106936;27;20035;-86
2022/11/11 00:27:12;;;;;;;12.38;1.67;;;;;;;13.94;100.00;99791.41;5110417;27;20479;-86
2022/11/11 00:29:58;;;;;;;11.13;1.40;;;;;;;13.88;100.00;99797.44;5109458;27;20028;-86
2022/11/11 00:32:46;;;;;;;11.57;2.38;;;;;;;13.91;100.00;99786.44;5115810;27;20076;-86
2022/11/11 00:38:51;;;;;;;6.90;1.08;;;;;;;13.94;100.00;99775.44;5105620;27;20027;-86
2022/11/11 00:41:38;;;;;;;5.03;0.90;;;;;;;13.93;100.00;99772.97;5113119;27;20028;-85
2022/11/11 00:44:25;;;;;;;6.90;1.55;;;;;;;13.93;100.00;99781.78;5104815;27;20031;-86
2022/11/11 00:53:36;;;;;;;11.18;1.33;;;;;;;13.94;100.00;99791.41;5118918;27;20034;-85
2022/11/11 00:56:24;;;;;;;5.93;1.35;;;;;;;13.99;100.00;99765.09;5113365;27;20035;-86
2022/11/11 00:59:10;;;;;;;9.18;1.50;;;;;;;13.99;100.00;99770.41;5109396;27;20047;-86
2022/11/11 01:01:58;;;;;;;9.70;1.40;;;;;;;14.01;100.00;99781.66;5113179;27;20047;-86
2022/11/11 01:04:44;;;;;;;11.60;1.75;;;;;;;13.98;100.00;99774.06;5112640;27;20035;-86
2022/11/11 01:07:32;;;;;;;13.50;1.60;;;;;;;14.01;100.00;99781.66;5120244;27;20031;-86
2022/11/11 01:10:38;;;;;;;10.57;1.70;;;;;;;14.02;100.00;99745.31;5110668;27;20036;-86
2022/11/11 01:13:27;;;;;;;13.48;1.65;;;;;;;14.02;100.00;99785.16;5105934;28;20035;-86
2022/11/11 01:16:23;;;;;;;10.52;2.05;;;;;;;14.04;100.00;99777.00;5118455;27;20027;-86
2022/11/11 01:19:10;;;;;;;8.73;1.50;;;;;;;14.01;100.00;99802.94;5101346;28;20054;-86
2022/11/11 01:21:57;;;;;;;7.07;1.42;;;;;;;13.97;100.00;99784.88;5121168;27;20031;-87
2022/11/11 01:24:45;;;;;;;13.20;1.80;;;;;;;13.99;100.00;99796.16;5101556;28;20030;-86
2022/11/11 01:27:34;;;;;;;6.75;1.38;;;;;;;13.96;100.00;99813.31;5101004;28;20111;-87
2022/11/11 01:30:21;;;;;;;12.50;1.63;;;;;;;13.96;100.00;99815.97;5107003;28;20027;-87
2022/11/11 01:33:09;;;;;;;;;;;;;;;13.83;100.00;99813.94;5103566;28;20020;-86
2022/11/11 01:36:03;;;;;;;8.60;1.10;;;;;;;13.92;100.00;99835.09;5107500;28;19912;-87
2022/11/11 01:38:58;;;;;;;8.40;1.45;;;;;;;13.93;100.00;99837.56;5093979;28;20043;-86
2022/11/11 01:41:45;;;;;;;5.15;0.82;;;;;;;13.87;100.00;99819.72;5104338;28;20180;-86
2022/11/11 01:44:47;;;;;;;8.35;1.58;;;;;;;13.92;100.00;99841.22;5109045;28;20055;-86
2022/11/11 01:50:39;;;;;;;9.98;1.42;;;;;;;13.84;100.00;99823.53;5107090;28;20101;-87
2022/11/11 01:53:27;;;;;;;10.23;1.33;;;;;;;13.81;100.00;99815.13;5109891;28;20020;-86
2022/11/11 01:56:13;;;;;;;14.60;1.52;;;;;;;13.77;100.00;99825.28;5094929;28;20046;-87
2022/11/11 01:59:08;;;;;;;18.48;2.47;;;;;;;13.79;100.00;99814.47;5113516;28;20055;-87
2022/11/11 02:01:55;;;;;;;12.60;1.90;;;;;;;13.79;100.00;99806.50;5105850;28;20113;-86
2022/11/11 02:07:50;;;;;;;13.70;1.95;;;;;;;13.73;100.00;99821.31;5110707;28;20043;-87
2022/11/11 02:10:40;;;;;;;16.70;2.45;;;;;;;13.81;100.00;99812.47;5112726;28;20114;-86
2022/11/11 02:16:34;;;;;;;12.75;2.05;;;;;;;13.84;100.00;99820.06;5115737;28;20129;-87
2022/11/11 02:19:30;;;;;;;23.50;3.25;;;;;;;13.86;100.00;99808.25;5098213;28;20039;-87
2022/11/11 02:22:23;;;;;;;12.60;2.20;;;;;;;13.86;100.00;99816.22;5104649;28;20115;-88
2022/11/11 02:25:13;;;;;;;15.90;2.38;;;;;;;13.86;100.00;99805.59;5101824;28;20153;-87
2022/11/11 02:28:05;;;;;;;23.63;2.63;;;;;;;13.87;100.00;99817.06;5100862;28;20032;-88
2022/11/11 02:30:52;;;;;;;17.52;2.60;;;;;;;13.87;100.00;99796.59;5122728;28;20032;-88
2022/11/11 02:33:38;;;;;;;;;;;;;;;13.77;100.00;99806.69;5113597;27;20107;-87
2022/11/11 02:36:26;;;;;;;12.55;2.40;;;;;;;13.86;100.00;99812.72;5074213;27;19969;-87
2022/11/11 02:39:13;;;;;;;14.25;2.67;;;;;;;13.84;100.00;99799.63;5107325;27;20031;-88
2022/11/11 02:42:03;;;;;;;11.90;2.50;;;;;;;13.86;100.00;99810.06;5106453;27;20392;-86
2022/11/11 02:44:57;;;;;;;16.85;2.65;;;;;;;13.89;100.00;99815.03;5115215;27;20046;-88
2022/11/11 02:47:44;;;;;;;11.88;1.85;;;;;;;13.93;100.00;99821.63;5112985;27;20076;-88
2022/11/11 02:50:30;;;;;;;14.43;2.45;;;;;;;13.89;100.00;99813.19;5108705;28;20034;-87
2022/11/11 02:53:18;;;;;;;16.77;2.08;;;;;;;13.91;100.00;99807.69;5113137;27;20387;-88
2022/11/11 02:56:05;;;;;;;14.00;2.70;;;;;;;13.92;100.00;99819.97;5114564;27;20451;-87
2022/11/11 02:58:53;;;;;;;15.63;2.47;;;;;;;13.94;100.00;99817.13;5108967;27;20530;-87
2022/11/11 03:01:41;;;;;;;15.98;2.42;;;;;;;13.97;100.00;99809.63;5108334;27;20028;-88
2022/11/11 03:04:27;;;;;;;11.20;3.10;;;;;;;14.01;100.00;99821.53;5107588;28;20387;-87
2022/11/11 03:07:15;;;;;;;13.55;2.08;;;;;;;14.05;100.00;99826.50;5113476;27;20452;-87
2022/11/11 03:10:01;;;;;;;15.00;2.25;;;;;;;14.04;100.00;99815.03;5110833;27;20042;-88
2022/11/11 03:12:48;;;;;;;13.02;2.17;;;;;;;14.09;100.00;99839.25;5099534;28;20081;-87
2022/11/11 03:15:35;;;;;;;14.43;2.70;;;;;;;14.10;100.00;99838.22;5116197;27;20024;-87
2022/11/11 03:18:22;;;;;;;13.70;2.40;;;;;;;14.12;100.00;99830.06;5110483;27;20031;-87
2022/11/11 03:21:09;;;;;;;10.20;1.40;;;;;;;14.12;100.00;99838.03;5108433;28;20386;-87
2022/11/11 03:23:57;;;;;;;10.00;1.67;;;;;;;14.15;100.00;99827.03;5121069;27;20028;-87
2022/11/11 03:26:43;;;;;;;13.63;1.85;;;;;;;14.19;100.00;99843.47;5118035;27;20028;-87
2022/11/11 03:29:31;;;;;;;8.05;1.33;;;;;;;14.20;100.00;99837.97;5102078;27;20034;-87
2022/11/11 03:32:17;;;;;;;10.52;1.83;;;;;;;14.20;100.00;99843.28;5119721;27;20032;-87
2022/11/11 03:35:05;;;;;;;17.75;2.47;;;;;;;14.21;100.00;99838.75;5107360;28;20038;-87
2022/11/11 03:40:58;;;;;;;13.68;1.67;;;;;;;14.17;100.00;99830.34;5113575;27;20027;-87
2022/11/11 03:43:44;;;;;;;15.73;2.78;;;;;;;14.14;100.00;99834.19;5096819;28;20063;-87
2022/11/11 03:46:32;;;;;;;11.70;1.83;;;;;;;14.16;100.00;99841.97;5117257;27;20120;-87
2022/11/11 03:49:18;;;;;;;18.27;2.25;;;;;;;14.13;100.00;99827.22;5113255;27;20650;-88
2022/11/11 03:52:06;;;;;;;16.05;3.65;;;;;;;14.15;100.00;99816.41;5112441;28;20111;-88
2022/11/11 03:54:52;;;;;;;;;;;;;;;14.05;100.00;99827.31;5110004;27;20034;-85
2022/11/11 03:57:41;;;;;;;13.20;2.40;;;;;;;14.16;100.00;99818.06;5107073;28;19919;-87
2022/11/11 04:00:29;;;;;;;10.73;1.70;;;;;;;14.17;100.00;99826.84;5096427;27;20039;-86
2022/11/11 04:16:04;;;;;;;15.70;2.55;;;;;;;14.18;100.00;99815.22;5119837;27;20039;-88
2022/11/11 04:21:55;;;;;;;6.93;1.33;;;;;;;14.21;100.00;99822.81;5119139;27;20027;-88
2022/11/11 04:29:27;;;;;;;7.60;1.20;;;;;;;14.24;100.00;99817.97;5117235;27;20058;-88
2022/11/11 04:30:54;;;;;;;8.73;1.85;;;;;;;14.21;100.00;99814.84;5114961;27;20474;-87
2022/11/11 04:33:41;;;;;;;8.05;1.73;;;;;;;14.19;100.00;99798.28;5103881;28;20028;-87
2022/11/11 04:36:28;;;;;;;9.00;1.23;;;;;;;14.12;100.00;99783.06;5094679;28;20050;-87
2022/11/11 04:42:20;;;;;;;10.20;1.40;;;;;;;14.08;100.00;99803.03;5111673;28;20032;-87
2022/11/11 04:45:34;;;;;;;10.88;1.73;;;;;;;14.12;100.00;99803.50;5093826;28;20024;-87
2022/11/11 04:48:21;;;;;;;8.05;1.63;;;;;;;14.02;100.00;99785.16;5093423;28;20031;-86
2022/11/11 04:51:08;;;;;;;12.00;1.83;;;;;;;14.02;100.00;99793.13;5109833;27;20028;-86
2022/11/11 04:53:55;;;;;;;11.88;2.42;;;;;;;13.96;100.00;99807.16;5120773;27;20106;-86
2022/11/11 04:56:49;;;;;;;14.02;1.92;;;;;;;13.97;100.00;99814.09;5101835;27;20036;-87
2022/11/11 04:59:35;;;;;;;11.68;2.05;;;;;;;13.95;100.00;99810.81;5099008;28;20575;-88
2022/11/11 05:05:28;;;;;;;14.45;2.25;;;;;;;13.97;100.00;99814.94;5111255;27;20475;-87
2022/11/11 05:11:23;;;;;;;6.95;1.80;;;;;;;13.98;100.00;99803.28;5112272;27;20036;-88
2022/11/11 05:25:24;;;;;;;16.23;2.45;;;;;;;13.99;100.00;99798.81;5111861;28;20129;-87
2022/11/11 05:26:36;;;;;;;17.30;2.55;;;;;;;14.05;100.00;99800.75;5124219;28;20039;-86
2022/11/11 05:29:23;;;;;;;23.60;4.13;;;;;;;14.09;100.00;99809.19;5100485;28;20027;-86
2022/11/11 05:32:15;;;;;;;20.75;3.88;;;;;;;14.16;100.00;99818.06;5106465;28;20093;-86
2022/11/11 05:35:02;;;;;;;19.15;3.13;;;;;;;14.16;100.00;99814.59;5112902;28;20035;-87
2022/11/11 05:40:55;;;;;;;17.08;2.78;;;;;;;14.22;100.00;99830.59;5114366;27;20122;-86
2022/11/11 05:43:43;;;;;;;22.55;3.97;;;;;;;14.21;100.00;99802.38;5105479;28;20514;-85
2022/11/11 05:46:29;;;;;;;14.38;3.05;;;;;;;14.23;100.00;99815.50;5122022;28;20073;-86
2022/11/11 05:49:17;;;;;;;24.33;4.30;;;;;;;14.28;100.00;99815.78;5117927;28;20050;-87
2022/11/11 05:52:04;;;;;;;17.63;2.55;;;;;;;14.27;100.00;99814.09;5110308;28;20063;-87
2022/11/11 05:54:52;;;;;;;23.48;3.72;;;;;;;14.33;100.00;99815.22;5119775;28;20428;-87
2022/11/11 05:57:38;;;;;;;19.80;4.22;;;;;;;14.34;100.00;99808.88;5114257;28;20027;-86
2022/11/11 06:00:26;;;;;;;26.85;4.50;;;;;;;14.37;100.00;99824.47;5095380;28;20087;-86
2022/11/11 06:03:14;;;;;;;18.20;3.58;;;;;;;14.37;100.00;99804.03;5132431;27;20084;-88
2022/11/11 06:06:00;;;;;;;20.13;4.00;;;;;;;14.32;100.00;99806.41;5106688;28;20031;-87
2022/11/11 06:08:48;;;;;;;14.15;2.65;;;;;;;14.33;100.00;99804.59;5099042;27;20394;-86
2022/11/11 06:11:35;;;;;;;19.70;3.38;;;;;;;14.34;100.00;99808.88;5121084;27;20028;-86
2022/11/11 06:14:22;;;;;;;19.40;3.13;;;;;;;14.38;100.00;99804.88;5110628;27;20115;-87
2022/11/11 06:17:08;;;;;;;23.15;3.08;;;;;;;14.35;100.00;99792.75;5084391;28;20032;-86
2022/11/11 06:19:56;;;;;;;20.15;3.20;;;;;;;14.38;100.00;99799.53;5097308;28;20036;-86
2022/11/11 06:22:57;;;;;;;23.35;3.72;;;;;;;14.32;100.00;99803.75;5120906;27;20035;-86
2022/11/11 06:28:56;;;;;;;20.48;3.13;;;;;;;14.37;100.00;99813.81;5106426;27;20473;-87
2022/11/11 06:31:44;;;;;;;18.27;2.75;;;;;;;14.27;100.00;99804.31;5099288;27;20734;-86
2022/11/11 06:34:30;;;;;;;21.92;3.25;;;;;;;14.30;100.00;99808.41;5095891;27;20038;-86
2022/11/11 06:37:18;;;;;;;19.38;3.97;;;;;;;14.33;100.00;99809.91;5102351;27;20107;-87
2022/11/11 06:40:04;;;;;;;;;;;;;;;14.21;100.00;99820.16;5098327;27;20503;-87
2022/11/11 06:42:52;;;;;;;21.92;3.15;;;;;;;14.32;100.00;99826.84;5110526;27;19920;-86
2022/11/11 06:45:38;;;;;;;24.08;3.25;;;;;;;14.28;100.00;99831.72;5112324;27;20110;-87
2022/11/11 06:48:27;;;;;;;18.33;3.20;;;;;;;14.34;100.00;99840.78;5090618;28;20067;-86
2022/11/11 06:51:14;;;;;;;21.25;3.83;;;;;;;14.33;100.00;99849.78;5105112;27;20028;-87
2022/11/11 06:54:02;;;;;;;18.20;2.55;;;;;;;14.35;100.00;99845.09;5094487;28;20043;-86
2022/11/11 06:56:48;;;;;;;22.25;4.20;;;;;;;14.35;100.00;99839.78;5080706;27;20039;-87
2022/11/11 06:59:36;;;;;;;19.08;3.40;;;;;;;14.37;100.00;99846.56;5095876;28;20130;-87
2022/11/11 07:02:24;;;;;;;24.25;3.95;;;;;;;14.39;100.00;99862.34;5104931;28;20038;-87
2022/11/11 07:05:10;;;;;;;22.30;3.72;;;;;;;14.37;100.00;99877.63;5115934;27;20468;-87
2022/11/11 07:08:03;;;;;;;20.50;3.20;;;;;;;14.44;100.00;99891.84;5096065;28;20060;-87
2022/11/11 07:10:49;;;;;;;22.48;3.70;;;;;;;14.46;100.00;99887.16;5103513;28;20043;-86
2022/11/11 07:13:36;;;;;;;19.27;4.38;;;;;;;14.49;100.00;99880.66;5109020;27;20045;-86
2022/11/11 07:16:23;;;;;;;29.63;2.85;;;;;;;14.50;100.00;99872.50;5107736;28;20030;-87
2022/11/11 07:19:11;;;;;;;22.35;4.28;;;;;;;14.56;100.00;99894.03;5097457;28;20093;-87
2022/11/11 07:21:57;;;;;;;16.45;3.03;;;;;;;14.51;100.00;99911.38;5091520;28;20028;-88
2022/11/11 07:24:45;;;;;;;17.45;3.40;;;;;;;14.60;100.00;99905.97;5095748;28;20115;-86
2022/11/11 07:27:31;;;;;;;23.52;4.25;;;;;;;14.60;100.00;99920.09;5109326;28;20031;-85
2022/11/11 07:30:19;;;;;;;19.13;2.72;;;;;;;14.61;100.00;99908.44;5085423;27;20491;-87
2022/11/11 07:33:06;;;;;;;21.05;2.38;;;;;;;14.61;100.00;99926.22;5106074;27;20027;-86
2022/11/11 07:35:53;;;;;;;18.80;3.30;;;;;;;14.66;100.00;99931.00;5094702;28;20089;-85
2022/11/11 07:38:39;;;;;;;21.45;3.15;;;;;;;14.62;100.00;99930.56;5097106;27;20503;-86
2022/11/11 07:41:27;;;;;;;16.48;3.35;;;;;;;14.66;100.00;99926.50;5108714;28;20039;-86
2022/11/11 07:44:13;;;;;;;;;;;;;;;14.52;100.00;99947.59;5095077;28;20035;-87
2022/11/11 07:47:00;;;;;;;23.45;3.85;;;;;;;14.63;100.00;99927.72;5100686;28;19911;-86
2022/11/11 07:49:47;;;;;;;20.20;3.08;;;;;;;14.63;100.00;99945.50;5089537;27;20079;-87
2022/11/11 07:52:36;;;;;;;19.42;2.78;;;;;;;14.63;100.00;99916.25;5085990;27;20027;-86
2022/11/11 07:55:22;;;;;;;16.15;2.47;;;;;;;14.59;100.00;99945.03;5095150;28;20036;-87
2022/11/11 07:58:10;;;;;;;15.90;3.03;;;;;;;14.62;100.00;99970.47;5079141;28;20043;-87
2022/11/11 08:00:59;;;;;;;17.83;2.40;;;;;;;14.59;100.00;99963.66;5090192;27;20036;-86
2022/11/11 08:03:50;;;;;;;17.70;3.53;;;;;;;14.55;100.00;99972.19;5099782;28;20380;-87
2022/11/11 08:06:37;;;;;;;13.32;2.88;;;;;;;14.55;100.00;99966.84;5090897;28;20047;-87
2022/11/11 08:09:24;;;;;;;11.25;2.42;;;;;;;14.54;100.00;99983.84;5085389;28;20051;-86
2022/11/11 08:15:18;;;;;;;15.40;2.88;;;;;;;14.51;100.00;99988.50;5081806;27;20443;-91
2022/11/11 08:18:03;;;;;;;;;;;;;;;14.41;100.00;99981.78;5072826;28;20597;-87
2022/11/11 08:20:48;;;;;;;13.07;2.58;;;;;;;14.46;100.00;99988.22;5051004;28;20451;-86
2022/11/11 08:23:33;;;;;;;11.07;2.13;;;;;;;14.45;100.00;99999.03;5068576;28;20032;-87
2022/11/11 08:26:17;;;;;;;13.57;2.50;;;;;;;14.49;100.00;100010.97;5056036;28;20032;-87
2022/11/11 08:29:02;;;;;;;13.75;2.95;;;;;;;14.50;100.00;100007.28;5069564;28;20757;-87
2022/11/11 08:31:47;;;;;;;13.63;2.92;;;;;;;14.46;100.00;100012.13;5062071;28;20029;-87
2022/11/11 08:34:31;;;;;;;11.82;2.17;;;;;;;14.48;100.00;100012.78;5069686;28;20029;-87
2022/11/11 08:37:15;;;;;;;14.65;1.92;;;;;;;14.49;100.00;100013.63;5049639;28;20028;-86
2022/11/11 08:39:59;;;;;;;11.90;1.98;;;;;;;14.49;100.00;100022.41;5057029;28;20036;-86
2022/11/11 08:42:44;;;;;;;15.07;2.38;;;;;;;14.43;100.00;100031.13;5048604;28;20057;-87
2022/11/11 08:45:29;;;;;;;8.90;1.63;;;;;;;14.39;100.00;100008.56;5070288;28;20115;-87
2022/11/11 08:48:13;;;;;;;19.98;2.83;;;;;;;14.42;100.00;100018.00;5055854;28;20098;-86
2022/11/11 08:50:57;;;;;;;19.70;2.20;;;;;;;14.40;100.00;100034.13;5050715;28;20036;-87
2022/11/11 08:53:42;;;;;;;13.35;2.30;;;;;;;14.39;100.00;100038.66;5068666;28;20484;-87
2022/11/11 08:56:26;;;;;;;14.65;3.13;;;;;;;14.41;100.00;100009.22;5076924;28;20123;-87
2022/11/11 08:59:12;;;;;;;18.73;2.60;;;;;;;14.45;100.00;100014.97;5058352;28;20052;-87
2022/11/11 09:01:56;;;;;;;20.63;3.08;;;;;;;14.44;100.00;100029.28;5065573;28;20991;-87
2022/11/11 09:04:41;;;;;;;21.52;3.13;;;;;;;14.44;100.00;99998.22;5030377;28;21663;-87
2022/11/11 09:07:26;;;;;;;13.18;2.33;;;;;;;14.39;100.00;100001.41;5048433;28;20079;-87
2022/11/11 09:10:10;;;;;;;16.33;3.53;;;;;;;14.47;100.00;100012.97;5028004;28;20048;-87
2022/11/11 09:12:58;;;;;;;17.40;2.33;;;;;;;14.51;100.00;100011.59;5036466;28;20032;-86
2022/11/11 09:15:42;;;;;;;15.00;3.10;;;;;;;14.51;100.00;100015.09;5030398;28;20037;-86
2022/11/11 09:18:27;;;;;;;13.35;2.72;;;;;;;14.55;100.00;100023.53;5032823;28;20116;-87
2022/11/11 09:21:11;;;;;;;20.60;2.90;;;;;;;14.55;100.00;100012.06;5051287;28;20528;-87
2022/11/11 09:23:55;;;;;;;19.33;2.50;;;;;;;14.57;100.00;100024.16;5040529;28;20205;-87
2022/11/11 09:26:40;;;;;;;16.70;3.10;;;;;;;14.56;100.00;100016.38;5046655;28;20040;-87
2022/11/11 09:29:24;;;;;;;16.77;2.95;;;;;;;14.58;100.00;100014.38;5027775;28;20033;-87
2022/11/11 09:32:08;;;;;;;13.95;2.72;;;;;;;14.60;100.00;100018.50;5044657;28;20029;-87
2022/11/11 09:34:54;;;;;;;16.60;3.00;;;;;;;14.60;100.00;100023.00;5033369;28;20497;-86
2022/11/11 09:37:38;;;;;;;19.42;3.35;;;;;;;14.56;100.00;100003.91;5031996;28;20111;-87
2022/11/11 09:40:25;;;;;;;14.77;2.83;;;;;;;14.59;100.00;99997.38;5049315;28;20500;-87
2022/11/11 09:43:23;;;;;;;12.43;2.47;;;;;;;14.60;100.00;100004.38;5029705;28;20386;-87
2022/11/11 09:46:29;;;;;;;9.43;2.72;;;;;;;14.57;100.00;100004.75;5042828;28;20101;-87
2022/11/11 09:49:37;;;;;;;14.82;2.83;;;;;;;14.57;100.00;99997.56;5028378;28;20037;-87
2022/11/11 09:52:27;;;;;;;11.75;1.98;;;;;;;14.56;100.00;99987.94;5025331;28;20055;-86
2022/11/11 09:55:21;;;;;;;8.88;1.60;;;;;;;14.61;100.00;99993.56;5047494;28;20029;-87
2022/11/11 09:58:28;;;;;;;11.23;1.95;;;;;;;14.66;100.00;100000.16;5031046;28;20033;-87
2022/11/11 10:01:18;;;;;;;13.20;2.15;;;;;;;14.67;100.00;100007.94;5045496;28;20119;-87
2022/11/11 10:04:24;;;;;;;14.45;2.28;;;;;;;14.66;100.00;100011.63;5032452;28;20104;-87
2022/11/11 10:07:21;;;;;;;9.75;1.80;;;;;;;14.66;100.00;99989.50;5052172;28;20040;-88
2022/11/11 10:10:33;;;;;;;11.73;2.13;;;;;;;14.67;100.00;100007.16;5051761;28;20041;-89
2022/11/11 10:13:47;;;;;;;10.68;1.50;;;;;;;14.63;100.00;99983.56;5047066;28;20068;-88
2022/11/11 10:17:01;;;;;;;14.02;1.90;;;;;;;14.64;100.00;100009.16;5047189;28;20506;-88
2022/11/11 10:19:54;;;;;;;10.95;1.90;;;;;;;14.69;100.00;100019.25;5036458;28;20136;-87
2022/11/11 10:22:41;;;;;;;11.23;2.00;;;;;;;14.66;100.00;100021.44;5047584;28;20079;-87
2022/11/11 10:25:26;;;;;;;7.93;1.65;;;;;;;14.71;100.00;99990.63;5040434;28;20045;-88
2022/11/11 10:28:18;;;;;;;10.18;2.25;;;;;;;14.78;100.00;100013.84;5040407;28;20052;-88
2022/11/11 10:31:09;;;;;;;11.27;1.70;;;;;;;14.72;100.00;99999.41;5049093;28;20036;-88
2022/11/11 10:34:02;;;;;;;12.60;1.75;;;;;;;14.69;100.00;100021.91;5038529;28;20029;-89
2022/11/11 10:36:54;;;;;;;11.38;1.88;;;;;;;14.70;100.00;100020.06;5056663;28;20378;-86
2022/11/11 10:40:06;;;;;;;14.05;2.58;;;;;;;14.75;100.00;100046.94;5050319;28;20504;-88
2022/11/11 10:42:50;;;;;;;10.10;1.63;;;;;;;14.71;100.00;100027.88;5037766;28;20071;-88
2022/11/11 10:46:05;;;;;;;10.60;1.70;;;;;;;14.69;100.00;100051.16;5024791;28;20128;-89
2022/11/11 10:49:13;;;;;;;12.82;1.90;;;;;;;14.73;100.00;100068.41;5023771;28;20517;-87
2022/11/11 10:52:15;;;;;;;12.02;2.42;;;;;;;14.76;100.00;100060.06;5042212;28;20465;-85
2022/11/11 10:55:10;;;;;;;13.57;2.25;;;;;;;14.74;100.00;100093.19;5045397;28;20041;-88
2022/11/11 10:58:13;;;;;;;15.98;2.53;;;;;;;14.76;100.00;100096.50;5023657;28;20040;-88
2022/11/11 11:01:01;;;;;;;12.38;2.63;;;;;;;14.75;100.00;100114.28;5033650;28;20050;-87
2022/11/11 11:03:54;;;;;;;14.38;2.72;;;;;;;14.80;100.00;100107.63;5031328;28;20444;-86
2022/11/11 11:06:43;;;;;;;15.82;2.55;;;;;;;14.79;100.00;100120.13;5042823;28;20065;-87
2022/11/11 11:09:42;;;;;;;20.02;3.30;;;;;;;14.81;100.00;100115.41;5043147;28;20034;-89
2022/11/11 11:12:35;;;;;;;17.25;2.92;;;;;;;14.81;100.00;100125.25;5036318;28;20094;-88
2022/11/11 11:15:21;;;;;;;14.70;2.20;;;;;;;14.79;100.00;100136.06;5043640;28;20501;-89
2022/11/11 11:18:13;;;;;;;16.05;2.78;;;;;;;14.75;100.00;100129.41;5037114;28;20642;-88
2022/11/11 11:21:01;;;;;;;17.20;3.22;;;;;;;14.79;100.00;100129.88;5030985;28;20040;-88
2022/11/11 11:23:46;;;;;;;10.82;2.92;;;;;;;14.79;100.00;100132.53;5052544;28;20057;-87
2022/11/11 11:26:46;;;;;;;19.90;2.55;;;;;;;14.74;100.00;100122.44;5061458;28;20123;-88
2022/11/11 11:29:35;;;;;;;16.67;2.97;;;;;;;14.75;100.00;100122.25;5049165;28;20036;-89
2022/11/11 11:32:26;;;;;;;16.90;2.58;;;;;;;14.76;100.00;100139.88;5042879;28;20099;-88
2022/11/11 11:35:29;;;;;;;19.10;2.95;;;;;;;14.78;100.00;100139.69;5047064;28;20032;-88
2022/11/11 11:38:14;;;;;;;17.90;2.65;;;;;;;14.74;100.00;100149.03;5040419;28;20091;-88
2022/11/11 11:40:58;;;;;;;17.35;3.67;;;;;;;14.78;100.00;100137.03;5046391;28;20115;-88
2022/11/11 11:43:44;;;;;;;14.88;2.97;;;;;;;14.78;100.00;100137.03;5038951;28;20033;-89
2022/11/11 11:46:37;;;;;;;15.15;2.38;;;;;;;14.83;100.00;100141.84;5039427;28;20077;-87
2022/11/11 11:49:37;;;;;;;13.45;1.88;;;;;;;14.79;100.00;100133.41;5032803;28;20036;-88
2022/11/11 11:52:43;;;;;;;12.27;2.60;;;;;;;14.82;100.00;100145.53;5028912;28;20057;-88
2022/11/11 11:55:42;;;;;;;11.70;2.15;;;;;;;14.83;100.00;100145.34;5041929;28;20037;-88
2022/11/11 11:58:58;;;;;;;17.20;2.38;;;;;;;14.84;100.00;100152.31;5031812;28;20034;-89
2022/11/11 12:02:20;;;;;;;14.75;2.45;;;;;;;14.89;100.00;100143.81;5025375;28;20136;-87
2022/11/11 12:05:30;;;;;;;10.93;1.85;;;;;;;14.87;100.00;100129.84;5044510;28;20040;-88
2022/11/11 12:08:20;;;;;;;12.90;1.92;;;;;;;14.90;100.00;100137.47;5034197;28;20037;-88
2022/11/11 12:11:10;;;;;;;11.85;1.65;;;;;;;14.96;100.00;100136.75;5031544;28;20449;-88
2022/11/11 12:14:14;;;;;;;9.93;1.85;;;;;;;14.97;100.00;100140.25;5043933;28;20059;-89
2022/11/11 12:17:23;;;;;;;11.68;1.83;;;;;;;15.03;100.00;100123.53;5026146;28;20370;-89
2022/11/11 12:20:10;;;;;;;10.02;2.20;;;;;;;15.02;100.00;100164.47;5025504;28;20038;-88
2022/11/11 12:23:33;;;;;;;11.57;1.90;;;;;;;15.14;100.00;100167.53;5031848;28;20055;-88
2022/11/11 12:26:37;;;;;;;10.48;1.70;;;;;;;15.19;100.00;100161.66;5049094;28;20028;-89
2022/11/11 12:29:27;;;;;;;9.43;1.30;;;;;;;15.23;100.00;100166.44;5045790;28;20505;-88
2022/11/11 12:32:36;;;;;;;9.02;1.23;;;;;;;15.24;100.00;100172.59;5034856;28;20038;-89
2022/11/11 12:35:26;;;;;;;7.75;1.38;;;;;;;15.24;100.00;100188.56;5036952;28;20029;-89
2022/11/11 12:38:41;;;;;;;11.82;1.25;;;;;;;15.30;100.00;100190.50;5037229;28;20037;-89
2022/11/11 12:41:26;;;;;;;5.38;1.08;;;;;;;15.27;100.00;100187.38;5032827;28;20115;-89
2022/11/11 12:44:13;;;;;;;5.18;0.95;;;;;;;15.28;100.00;100199.66;5028011;28;20045;-89
2022/11/11 12:47:28;;;;;;;10.55;1.48;;;;;;;15.23;100.00;100200.19;5034395;28;20484;-88
2022/11/11 12:50:30;;;;;;;11.63;1.35;;;;;;;15.20;100.00;100188.09;5025278;28;20037;-89
2022/11/11 12:53:43;;;;;;;7.95;1.52;;;;;;;15.18;100.00;100187.44;5037447;28;20037;-87
2022/11/11 12:56:53;;;;;;;9.38;1.52;;;;;;;15.11;100.00;100175.88;5046324;28;20037;-89
2022/11/11 12:59:59;;;;;;;6.90;1.38;;;;;;;15.08;100.00;100189.53;5056087;28;20124;-87
2022/11/11 13:03:20;;;;;;;7.28;1.42;;;;;;;15.08;100.00;100186.88;5048773;28;20064;-88
2022/11/11 13:06:36;;;;;;;7.15;1.00;;;;;;;15.11;100.00;100189.19;5033897;28;20025;-88
2022/11/11 13:09:39;;;;;;;6.13;1.25;;;;;;;15.08;100.00;100201.00;5039123;28;20028;-88
2022/11/11 13:12:38;;;;;;;8.70;1.50;;;;;;;15.13;100.00;100216.44;5051146;28;20090;-88
2022/11/11 13:15:25;;;;;;;8.23;1.63;;;;;;;15.13;100.00;100213.75;5037419;28;20528;-88
2022/11/11 13:18:24;;;;;;;7.00;1.10;;;;;;;15.13;100.00;100208.44;5064229;28;20036;-88
2022/11/11 13:21:14;;;;;;;14.13;1.70;;;;;;;15.12;100.00;100215.63;5018696;28;20040;-88
2022/11/11 13:23:59;;;;;;;9.10;1.48;;;;;;;15.11;100.00;100208.63;5049324;28;20040;-88
2022/11/11 13:26:55;;;;;;;8.07;1.33;;;;;;;15.11;100.00;100207.81;5034109;28;20037;-89
2022/11/11 13:30:24;;;;;;;7.10;1.52;;;;;;;15.10;100.00;100209.63;5055184;28;20584;-88
2022/11/11 13:33:18;;;;;;;4.47;1.08;;;;;;;15.07;100.00;100188.69;5026134;28;20045;-89
2022/11/11 13:36:06;;;;;;;8.02;1.45;;;;;;;15.08;100.00;100208.97;5046183;28;20036;-89
2022/11/11 13:38:57;;;;;;;6.35;1.63;;;;;;;15.11;100.00;100187.31;5045743;28;20033;-88
2022/11/11 13:41:48;;;;;;;8.60;1.50;;;;;;;15.10;100.00;100209.63;5037935;28;20108;-89
2022/11/11 13:44:46;;;;;;;5.25;1.17;;;;;;;15.12;100.00;100189.00;5029416;28;20037;-89
2022/11/11 13:47:37;;;;;;;6.00;1.70;;;;;;;15.13;100.00;100200.44;5047927;28;20049;-89
2022/11/11 13:50:30;;;;;;;8.23;1.30;;;;;;;15.16;100.00;100205.41;5025588;28;20030;-89
2022/11/11 13:53:36;;;;;;;5.55;0.90;;;;;;;15.15;100.00;100205.59;5047868;28;20037;-88
2022/11/11 13:56:35;;;;;;;5.30;1.00;;;;;;;15.16;100.00;100209.94;5037151;28;20033;-87
2022/11/11 13:59:42;;;;;;;8.45;1.48;;;;;;;15.18;100.00;100219.38;5039801;28;20482;-88
2022/11/11 14:02:31;;;;;;;8.30;1.00;;;;;;;15.19;100.00;100202.41;5028930;28;20082;-88
2022/11/11 14:05:21;;;;;;;8.82;1.10;;;;;;;15.19;100.00;100202.41;5037856;28;20022;-88
2022/11/11 14:08:06;;;;;;;4.82;0.85;;;;;;;15.21;100.00;100219.03;5027318;28;20102;-87
2022/11/11 14:10:54;;;;;;;4.47;0.80;;;;;;;15.22;100.00;100209.22;5039644;28;20087;-88
2022/11/11 14:13:40;;;;;;;6.55;1.02;;;;;;;15.20;100.00;100222.69;5014819;28;20080;-87
2022/11/11 14:16:33;;;;;;;5.63;0.97;;;;;;;15.22;100.00;100223.34;5020663;28;20536;-86
2022/11/11 14:19:18;;;;;;;4.65;0.90;;;;;;;15.17;100.00;100238.19;5034227;28;20033;-89
2022/11/11 14:22:22;;;;;;;4.90;0.70;;;;;;;15.20;100.00;100238.69;5038165;28;20125;-87
2022/11/11 14:25:27;;;;;;;3.08;0.50;;;;;;;15.17;100.00;100235.53;5026161;28;20094;-88